createdAt,value
2018-10-18T00:01:21.989Z,10.16
2018-10-18T00:03:50.528Z,9.73
2018-10-18T00:06:19.465Z,9.88
2018-10-18T00:08:48.090Z,10.13
2018-10-18T00:11:16.620Z,9.79
2018-10-18T00:13:45.175Z,9.90
2018-10-18T00:16:13.705Z,9.69
2018-10-18T00:18:42.329Z,9.96
2018-10-18T00:21:10.984Z,9.78
2018-10-18T00:23:39.565Z,9.83
2018-10-18T00:26:08.121Z,9.83
2018-10-18T00:28:36.721Z,9.85
2018-10-18T00:31:05.353Z,9.89
2018-10-18T00:33:33.948Z,10.23
2018-10-18T00:36:02.528Z,9.93
2018-10-18T00:38:31.377Z,9.82
2018-10-18T00:40:59.972Z,9.45
2018-10-18T00:43:28.533Z,9.37
2018-10-18T00:45:57.128Z,9.69
2018-10-18T00:48:25.701Z,9.56
2018-10-18T00:50:54.285Z,9.23
2018-10-18T00:53:22.853Z,9.43
2018-10-18T00:55:51.464Z,9.21
2018-10-18T00:58:20.019Z,9.25
2018-10-18T01:00:48.881Z,9.41
2018-10-18T01:03:17.431Z,9.44
2018-10-18T01:05:46.021Z,9.39
2018-10-18T01:08:14.799Z,9.48
2018-10-18T01:10:43.324Z,9.83
2018-10-18T01:13:11.885Z,9.66
2018-10-18T01:15:40.498Z,9.57
2018-10-18T01:18:09.394Z,9.57
2018-10-18T01:20:37.925Z,9.62
2018-10-18T01:23:07.236Z,9.58
2018-10-18T01:25:35.789Z,9.70
2018-10-18T01:28:04.655Z,9.89
2018-10-18T01:30:33.205Z,9.67
2018-10-18T01:33:01.733Z,9.57
2018-10-18T01:35:30.341Z,9.61
2018-10-18T01:37:58.877Z,9.28
2018-10-18T01:40:27.453Z,9.22
2018-10-18T01:42:55.974Z,9.25
2018-10-18T01:45:24.552Z,9.33
2018-10-18T01:47:53.183Z,9.23
2018-10-18T01:50:21.717Z,9.49
2018-10-18T01:52:50.254Z,9.30
2018-10-18T01:55:18.825Z,9.41
2018-10-18T01:57:47.678Z,8.92
2018-10-18T02:00:16.284Z,9.37
2018-10-18T02:02:44.800Z,9.44
2018-10-18T02:05:13.380Z,9.58
2018-10-18T02:07:41.944Z,9.40
2018-10-18T02:10:10.501Z,9.47
2018-10-18T02:12:39.053Z,9.42
2018-10-18T02:15:09.858Z,9.51
2018-10-18T02:17:38.412Z,9.47
2018-10-18T02:20:07.620Z,9.36
2018-10-18T02:22:36.275Z,9.36
2018-10-18T02:25:05.447Z,9.31
2018-10-18T02:27:34.264Z,9.37
2018-10-18T02:30:02.863Z,9.38
2018-10-18T02:32:31.921Z,9.23
2018-10-18T02:35:00.472Z,9.37
2018-10-18T02:37:29.068Z,9.35
2018-10-18T02:39:57.623Z,9.24
2018-10-18T02:42:26.215Z,8.99
2018-10-18T02:44:54.773Z,8.85
2018-10-18T02:47:23.368Z,8.71
2018-10-18T02:49:51.918Z,8.73
2018-10-18T02:52:20.509Z,8.88
2018-10-18T02:54:49.056Z,8.97
2018-10-18T02:57:17.629Z,9.10
2018-10-18T02:59:46.174Z,9.10
2018-10-18T03:02:14.772Z,9.06
2018-10-18T03:04:43.313Z,9.08
2018-10-18T03:07:11.921Z,9.05
2018-10-18T03:09:40.469Z,9.03
2018-10-18T03:12:09.089Z,9.15
2018-10-18T03:14:37.925Z,8.96
2018-10-18T03:17:06.666Z,8.90
2018-10-18T03:19:35.242Z,8.62
2018-10-18T03:22:03.829Z,8.59
2018-10-18T03:24:32.617Z,8.87
2018-10-18T03:27:01.145Z,8.82
2018-10-18T03:29:29.701Z,8.66
2018-10-18T03:31:58.241Z,8.65
2018-10-18T03:34:26.810Z,8.46
2018-10-18T03:36:55.349Z,8.87
2018-10-18T03:39:23.916Z,8.80
2018-10-18T03:41:52.470Z,8.93
2018-10-18T03:44:21.026Z,8.50
2018-10-18T03:46:49.569Z,8.73
2018-10-18T03:49:18.138Z,8.53
2018-10-18T03:51:46.753Z,8.49
2018-10-18T03:54:15.338Z,8.79
2018-10-18T03:56:43.858Z,8.86
2018-10-18T03:59:12.416Z,8.80
2018-10-18T04:01:40.953Z,9.08
2018-10-18T04:04:09.573Z,9.19
2018-10-18T04:06:38.125Z,8.72
2018-10-18T04:09:08.576Z,8.77
2018-10-18T04:11:37.125Z,8.70
2018-10-18T04:14:05.943Z,8.92
2018-10-18T04:16:34.489Z,8.70
2018-10-18T04:19:03.093Z,8.79
2018-10-18T04:21:31.904Z,8.75
2018-10-18T04:24:00.468Z,8.73
2018-10-18T04:26:29.008Z,8.77
2018-10-18T04:28:57.568Z,8.61
2018-10-18T04:31:26.164Z,8.64
2018-10-18T04:33:54.744Z,8.70
2018-10-18T04:36:23.816Z,8.72
2018-10-18T04:38:52.829Z,8.69
2018-10-18T04:41:21.859Z,8.37
2018-10-18T04:43:51.104Z,8.44
2018-10-18T04:46:20.133Z,8.51
2018-10-18T04:48:50.894Z,8.38
2018-10-18T04:51:19.487Z,8.48
2018-10-18T04:53:48.044Z,8.73
2018-10-18T04:56:16.697Z,8.86
2018-10-18T04:58:45.252Z,8.53
2018-10-18T05:01:13.931Z,8.62
2018-10-18T05:03:45.916Z,8.52
2018-10-18T05:06:14.617Z,8.49
2018-10-18T05:08:43.578Z,8.32
2018-10-18T05:11:12.186Z,8.27
2018-10-18T05:13:40.897Z,8.48
2018-10-18T05:16:09.661Z,8.51
2018-10-18T05:18:38.905Z,8.14
2018-10-18T05:21:07.852Z,8.25
2018-10-18T05:23:36.563Z,8.35
2018-10-18T05:26:06.244Z,8.29
2018-10-18T05:28:34.860Z,8.24
2018-10-18T05:31:03.481Z,8.53
2018-10-18T05:33:32.253Z,8.52
2018-10-18T05:36:00.925Z,8.22
2018-10-18T05:38:29.738Z,8.22
2018-10-18T05:40:58.320Z,8.13
2018-10-18T05:43:27.317Z,8.45
2018-10-18T05:45:56.477Z,8.31
2018-10-18T05:48:25.353Z,8.39
2018-10-18T05:50:53.973Z,8.25
2018-10-18T05:53:22.596Z,8.50
2018-10-18T05:55:51.133Z,8.23
2018-10-18T05:58:19.668Z,8.22
2018-10-18T06:00:48.257Z,8.25
2018-10-18T06:03:16.912Z,7.72
2018-10-18T06:05:45.816Z,7.43
2018-10-18T06:08:14.458Z,7.50
2018-10-18T06:10:54.229Z,7.78
2018-10-18T06:13:22.782Z,7.52
2018-10-18T06:15:51.372Z,7.58
2018-10-18T06:18:20.029Z,7.60
2018-10-18T06:20:48.617Z,7.75
2018-10-18T06:23:17.204Z,7.86
2018-10-18T06:25:45.776Z,8.01
2018-10-18T06:28:14.331Z,8.12
2018-10-18T06:30:42.911Z,8.08
2018-10-18T06:33:11.531Z,8.42
2018-10-18T06:35:40.115Z,8.14
2018-10-18T06:38:08.676Z,7.85
2018-10-18T06:40:37.253Z,7.93
2018-10-18T06:43:05.909Z,7.61
2018-10-18T06:45:34.508Z,8.06
2018-10-18T06:48:03.112Z,8.25
2018-10-18T06:50:31.693Z,8.33
2018-10-18T06:53:00.245Z,8.53
2018-10-18T06:55:28.827Z,8.79
2018-10-18T06:57:57.395Z,8.80
2018-10-18T07:00:26.297Z,8.86
2018-10-18T07:02:54.937Z,8.82
2018-10-18T07:05:23.704Z,8.90
2018-10-18T07:07:52.457Z,8.86
2018-10-18T07:10:21.291Z,8.79
2018-10-18T07:12:50.100Z,8.96
2018-10-18T07:15:18.762Z,9.19
2018-10-18T07:17:47.610Z,9.11
2018-10-18T07:20:16.357Z,9.06
2018-10-18T07:22:45.080Z,9.37
2018-10-18T07:25:15.136Z,9.35
2018-10-18T07:27:44.165Z,9.36
2018-10-18T07:30:14.257Z,9.48
2018-10-18T07:32:43.172Z,9.65
2018-10-18T07:35:13.088Z,9.69
2018-10-18T07:37:41.807Z,9.84
2018-10-18T07:40:13.478Z,9.98
2018-10-18T07:42:42.208Z,10.07
2018-10-18T07:45:12.075Z,10.14
2018-10-18T07:47:40.951Z,10.23
2018-10-18T07:50:10.222Z,10.45
2018-10-18T07:52:38.948Z,10.60
2018-10-18T07:55:08.417Z,10.74
2018-10-18T07:57:37.209Z,10.83
2018-10-18T08:00:11.363Z,10.98
2018-10-18T08:02:40.241Z,11.20
2018-10-18T08:05:09.395Z,11.36
2018-10-18T08:07:38.348Z,11.53
2018-10-18T08:10:10.702Z,11.71
2018-10-18T08:12:39.506Z,11.81
2018-10-18T08:15:09.364Z,11.90
2018-10-18T08:17:37.961Z,12.04
2018-10-18T08:20:07.376Z,12.16
2018-10-18T08:22:36.039Z,12.22
2018-10-18T08:25:04.946Z,12.33
2018-10-18T08:27:33.772Z,12.47
2018-10-18T08:30:02.596Z,12.61
2018-10-18T08:32:31.181Z,12.78
2018-10-18T08:34:59.732Z,12.93
2018-10-18T08:37:28.346Z,13.07
2018-10-18T08:39:57.237Z,13.15
2018-10-18T08:42:25.865Z,13.26
2018-10-18T08:44:54.608Z,13.45
2018-10-18T08:47:23.212Z,13.62
2018-10-18T08:49:51.853Z,13.72
2018-10-18T08:52:20.437Z,13.80
2018-10-18T08:54:49.021Z,13.83
2018-10-18T08:57:17.657Z,13.91
2018-10-18T08:59:46.201Z,14.09
2018-10-18T09:02:14.776Z,14.37
2018-10-18T09:04:43.348Z,14.52
2018-10-18T09:07:11.979Z,14.76
2018-10-18T09:09:40.513Z,14.80
2018-10-18T09:12:09.112Z,14.91
2018-10-18T09:14:37.704Z,15.12
2018-10-18T09:17:06.329Z,15.32
2018-10-18T09:19:35.029Z,15.42
2018-10-18T09:22:03.619Z,15.45
2018-10-18T09:24:32.148Z,15.61
2018-10-18T09:27:00.729Z,15.64
2018-10-18T09:29:29.313Z,15.75
2018-10-18T09:31:57.920Z,15.77
2018-10-18T09:34:26.489Z,16.04
2018-10-18T09:36:55.082Z,16.06
2018-10-18T09:39:23.637Z,16.00
2018-10-18T09:41:52.205Z,16.19
2018-10-18T09:44:20.816Z,16.22
2018-10-18T09:46:49.349Z,16.60
2018-10-18T09:49:17.970Z,16.50
2018-10-18T09:51:46.460Z,16.58
2018-10-18T09:54:15.264Z,16.66
2018-10-18T09:56:44.142Z,16.74
2018-10-18T09:59:12.901Z,16.99
2018-10-18T10:01:46.824Z,17.11
2018-10-18T10:04:15.600Z,17.18
2018-10-18T10:06:44.389Z,17.10
2018-10-18T10:09:13.025Z,17.25
2018-10-18T10:11:42.205Z,17.29
2018-10-18T10:14:10.858Z,17.26
2018-10-18T10:16:39.585Z,17.42
2018-10-18T10:19:08.357Z,17.55
2018-10-18T10:21:37.003Z,17.58
2018-10-18T10:24:05.874Z,17.53
2018-10-18T10:26:34.529Z,17.51
2018-10-18T10:29:03.271Z,17.62
2018-10-18T10:31:31.946Z,17.70
2018-10-18T10:34:00.532Z,17.85
2018-10-18T10:36:29.205Z,17.82
2018-10-18T10:38:57.960Z,17.98
2018-10-18T10:41:26.606Z,17.89
2018-10-18T10:43:55.311Z,18.00
2018-10-18T10:46:24.052Z,18.42
2018-10-18T10:48:52.779Z,18.45
2018-10-18T10:51:21.428Z,18.39
2018-10-18T10:53:50.144Z,18.74
2018-10-18T10:56:18.820Z,18.76
2018-10-18T10:58:47.601Z,18.53
2018-10-18T11:01:23.911Z,18.67
2018-10-18T11:03:54.015Z,18.72
2018-10-18T11:06:23.085Z,18.74
2018-10-18T11:08:51.825Z,18.81
2018-10-18T11:11:21.249Z,18.95
2018-10-18T11:13:50.249Z,19.11
2018-10-18T11:16:18.861Z,18.94
2018-10-18T11:18:47.738Z,19.14
2018-10-18T11:21:17.551Z,19.23
2018-10-18T11:23:46.317Z,19.18
2018-10-18T11:26:15.277Z,19.54
2018-10-18T11:28:43.964Z,19.48
2018-10-18T11:31:13.233Z,19.27
2018-10-18T11:33:41.972Z,19.36
2018-10-18T11:36:11.147Z,19.35
2018-10-18T11:38:39.960Z,19.53
2018-10-18T11:41:08.724Z,19.38
2018-10-18T11:43:41.674Z,19.45
2018-10-18T11:46:10.432Z,19.64
2018-10-18T11:48:39.104Z,19.64
2018-10-18T11:51:07.913Z,19.58
2018-10-18T11:53:42.708Z,19.58
2018-10-18T11:56:11.787Z,19.66
2018-10-18T11:58:44.017Z,19.76
2018-10-18T12:01:15.713Z,19.51
2018-10-18T12:03:44.372Z,19.66
2018-10-18T12:06:17.455Z,19.77
2018-10-18T12:08:47.952Z,19.90
2018-10-18T12:11:16.800Z,19.92
2018-10-18T12:13:49.361Z,19.88
2018-10-18T12:16:21.197Z,19.82
2018-10-18T12:18:52.282Z,19.81
2018-10-18T12:21:27.165Z,19.91
2018-10-18T12:23:55.862Z,20.11
2018-10-18T12:26:31.642Z,20.17
2018-10-18T12:29:01.712Z,20.29
2018-10-18T12:31:30.293Z,20.23
2018-10-18T12:33:59.642Z,20.29
2018-10-18T12:36:29.411Z,20.48
2018-10-18T12:38:58.354Z,20.65
2018-10-18T12:41:31.903Z,20.44
2018-10-18T12:44:04.616Z,20.45
2018-10-18T12:46:36.449Z,20.63
2018-10-18T12:49:11.103Z,20.48
2018-10-18T12:51:46.958Z,20.74
2018-10-18T12:54:17.083Z,20.80
2018-10-18T12:56:47.404Z,20.86
2018-10-18T12:59:17.192Z,20.79
2018-10-18T13:01:45.912Z,20.86
2018-10-18T13:04:18.900Z,20.71
2018-10-18T13:06:52.306Z,20.90
2018-10-18T13:09:24.164Z,20.78
2018-10-18T13:11:58.703Z,20.80
2018-10-18T13:14:32.172Z,20.84
2018-10-18T13:17:03.097Z,20.90
2018-10-18T13:19:33.511Z,20.83
2018-10-18T13:22:02.825Z,21.21
2018-10-18T13:24:38.322Z,20.99
2018-10-18T13:27:09.918Z,21.08
2018-10-18T13:29:39.727Z,21.30
2018-10-18T13:32:14.235Z,21.36
2018-10-18T13:34:45.672Z,21.00
2018-10-18T13:37:18.293Z,21.18
2018-10-18T13:39:50.616Z,21.11
2018-10-18T13:42:22.706Z,21.20
2018-10-18T13:44:51.321Z,21.14
2018-10-18T13:47:24.883Z,21.16
2018-10-18T13:49:56.223Z,21.20
2018-10-18T13:52:32.654Z,21.11
2018-10-18T13:55:02.515Z,21.27
2018-10-18T13:57:36.842Z,21.22
2018-10-18T14:00:27.800Z,21.33
2018-10-18T14:03:00.165Z,21.28
2018-10-18T14:05:40.808Z,21.27
2018-10-18T14:08:15.844Z,21.31
2018-10-18T14:10:50.388Z,21.34
2018-10-18T14:13:21.781Z,21.48
2018-10-18T14:15:52.596Z,21.57
2018-10-18T14:18:31.866Z,21.56
2018-10-18T14:23:40.063Z,21.98
2018-10-18T14:26:15.223Z,22.03
2018-10-18T14:28:48.479Z,21.95
2018-10-18T14:31:23.585Z,22.27
2018-10-18T14:33:57.915Z,22.55
2018-10-18T14:36:37.224Z,22.70
2018-10-18T14:39:20.331Z,22.23
2018-10-18T14:41:55.115Z,22.00
2018-10-18T14:44:29.908Z,22.09
2018-10-18T14:47:11.271Z,22.19
2018-10-18T14:49:44.193Z,22.39
2018-10-18T14:52:13.638Z,21.83
2018-10-18T14:54:42.326Z,21.20
2018-10-18T14:57:14.727Z,20.96
2018-10-18T14:59:43.598Z,21.21
2018-10-18T15:02:15.245Z,20.95
2018-10-18T15:04:46.573Z,20.58
2018-10-18T15:07:15.808Z,20.83
2018-10-18T15:09:44.852Z,20.23
2018-10-18T15:12:13.820Z,19.88
2018-10-18T15:14:42.802Z,19.75
2018-10-18T15:17:11.920Z,19.76
2018-10-18T15:19:41.129Z,19.59
2018-10-18T15:22:10.710Z,19.09
2018-10-18T15:24:39.853Z,19.03
2018-10-18T15:27:16.256Z,18.97
2018-10-18T15:29:50.618Z,18.59
2018-10-18T15:32:19.375Z,18.58
2018-10-18T15:34:50.447Z,18.49
2018-10-18T15:37:19.117Z,18.23
2018-10-18T15:39:49.413Z,18.14
2018-10-18T15:42:18.141Z,18.04
2018-10-18T15:44:47.028Z,18.14
2018-10-18T15:47:19.221Z,17.84
2018-10-18T15:49:50.771Z,17.65
2018-10-18T15:52:23.590Z,17.73
2018-10-18T15:55:00.171Z,17.47
2018-10-18T15:57:34.990Z,17.39
2018-10-18T16:00:11.364Z,17.42
2018-10-18T16:02:46.916Z,17.31
2018-10-18T16:05:23.397Z,17.15
2018-10-18T16:08:00.015Z,17.15
2018-10-18T16:10:35.821Z,17.14
2018-10-18T16:13:11.900Z,17.04
2018-10-18T16:15:46.676Z,16.88
2018-10-18T16:18:23.228Z,16.76
2018-10-18T16:21:01.032Z,16.67
2018-10-18T16:23:38.751Z,16.58
2018-10-18T16:26:25.005Z,16.51
2018-10-18T16:29:14.441Z,16.44
2018-10-18T16:31:46.172Z,16.48
2018-10-18T16:34:14.892Z,16.32
2018-10-18T16:36:43.894Z,16.27
2018-10-18T16:39:13.848Z,16.26
2018-10-18T16:41:42.808Z,16.14
2018-10-18T16:44:11.539Z,16.10
2018-10-18T16:46:40.205Z,16.05
2018-10-18T16:49:08.957Z,16.01
2018-10-18T16:51:37.853Z,15.97
2018-10-18T16:54:10.004Z,15.88
2018-10-18T16:56:40.285Z,15.85
2018-10-18T16:59:08.893Z,15.88
2018-10-18T17:01:41.184Z,15.80
2018-10-18T17:04:11.647Z,15.76
2018-10-18T17:06:41.636Z,15.67
2018-10-18T17:09:15.338Z,15.61
2018-10-18T17:11:46.749Z,15.65
2018-10-18T17:14:18.904Z,15.60
2018-10-18T17:16:54.306Z,15.61
2018-10-18T17:22:04.436Z,15.45
2018-10-18T17:24:40.597Z,15.43
2018-10-18T17:27:13.237Z,15.43
2018-10-18T17:29:47.502Z,15.30
2018-10-18T17:32:17.095Z,15.29
2018-10-18T17:34:45.989Z,15.17
2018-10-18T17:37:14.538Z,15.29
2018-10-18T17:39:43.121Z,15.21
2018-10-18T17:42:11.764Z,15.15
2018-10-18T17:44:40.273Z,15.13
2018-10-18T17:47:08.867Z,15.04
2018-10-18T17:49:37.425Z,15.07
2018-10-18T17:52:06.260Z,15.00
2018-10-18T17:54:34.773Z,14.95
2018-10-18T17:57:03.340Z,15.03
2018-10-18T17:59:33.299Z,14.93
2018-10-18T18:02:01.876Z,14.91
2018-10-18T18:04:39.009Z,14.89
2018-10-18T18:07:12.284Z,14.87
2018-10-18T18:09:40.890Z,14.86
2018-10-18T18:12:09.493Z,14.82
2018-10-18T18:14:42.915Z,14.73
2018-10-18T18:17:12.556Z,14.71
2018-10-18T18:19:44.128Z,14.72
2018-10-18T18:22:22.164Z,14.65
2018-10-18T18:24:51.051Z,14.64
2018-10-18T18:27:20.085Z,14.64
2018-10-18T18:29:48.875Z,14.67
2018-10-18T18:32:19.162Z,14.64
2018-10-18T18:34:47.777Z,14.54
2018-10-18T18:37:18.213Z,14.39
2018-10-18T18:39:47.165Z,14.36
2018-10-18T18:42:16.090Z,14.20
2018-10-18T18:44:44.748Z,14.08
2018-10-18T18:47:14.475Z,14.02
2018-10-18T18:49:43.413Z,14.02
2018-10-18T18:52:13.825Z,13.85
2018-10-18T18:54:44.073Z,13.88
2018-10-18T18:57:19.576Z,13.69
2018-10-18T18:59:53.337Z,12.80
2018-10-18T19:02:29.018Z,12.89
2018-10-18T19:05:03.204Z,12.47
2018-10-18T19:07:32.473Z,12.42
2018-10-18T19:10:01.036Z,12.52
2018-10-18T19:12:34.237Z,12.65
2018-10-18T19:15:03.179Z,12.81
2018-10-18T19:17:36.475Z,12.80
2018-10-18T19:20:05.688Z,13.00
2018-10-18T19:22:39.761Z,13.18
2018-10-18T19:25:10.394Z,13.20
2018-10-18T19:27:41.033Z,12.99
2018-10-18T19:30:12.503Z,12.69
2018-10-18T19:32:41.206Z,12.56
2018-10-18T19:35:09.781Z,12.53
2018-10-18T19:37:38.379Z,12.38
2018-10-18T19:40:07.819Z,11.87
2018-10-18T19:42:36.388Z,11.88
2018-10-18T19:45:05.541Z,11.99
2018-10-18T19:47:34.109Z,12.28
2018-10-18T19:50:02.706Z,12.37
2018-10-18T19:52:31.376Z,11.99
2018-10-18T19:54:59.846Z,11.92
2018-10-18T19:57:28.533Z,11.95
2018-10-18T19:59:57.105Z,12.14
2018-10-18T20:02:26.017Z,11.91
2018-10-18T20:04:54.592Z,11.93
2018-10-18T20:07:23.224Z,11.53
2018-10-18T20:09:51.768Z,11.38
2018-10-18T20:12:20.367Z,11.39
2018-10-18T20:14:48.913Z,11.66
2018-10-18T20:17:17.480Z,11.69
2018-10-18T20:19:46.039Z,11.91
2018-10-18T20:22:14.629Z,12.11
2018-10-18T20:24:43.403Z,12.12
2018-10-18T20:27:12.156Z,11.89
2018-10-18T20:29:40.695Z,12.03
2018-10-18T20:32:09.336Z,11.59
2018-10-18T20:34:37.886Z,11.47
2018-10-18T20:37:06.876Z,11.49
2018-10-18T20:39:35.415Z,11.41
2018-10-18T20:42:04.012Z,11.35
2018-10-18T20:44:32.549Z,11.15
2018-10-18T20:47:01.124Z,11.05
2018-10-18T20:49:29.677Z,10.85
2018-10-18T20:51:58.249Z,10.87
2018-10-18T20:54:26.790Z,11.03
2018-10-18T20:56:55.413Z,10.91
2018-10-18T20:59:23.937Z,11.05
2018-10-18T21:01:52.517Z,11.13
2018-10-18T21:04:21.076Z,11.06
2018-10-18T21:06:49.639Z,11.04
2018-10-18T21:09:18.426Z,10.92
2018-10-18T21:11:47.018Z,10.82
2018-10-18T21:14:15.569Z,10.49
2018-10-18T21:16:44.205Z,10.46
2018-10-18T21:19:12.800Z,10.32
2018-10-18T21:21:41.406Z,10.08
2018-10-18T21:24:09.950Z,9.99
2018-10-18T21:26:38.493Z,10.05
2018-10-18T21:29:08.820Z,10.36
2018-10-18T21:31:38.102Z,10.52
2018-10-18T21:34:09.154Z,10.53
2018-10-18T21:36:38.501Z,10.61
2018-10-18T21:39:08.313Z,10.56
2018-10-18T21:41:38.430Z,10.56
2018-10-18T21:44:08.731Z,10.51
2018-10-18T21:46:38.976Z,10.64
2018-10-18T21:49:07.606Z,10.43
2018-10-18T21:51:37.728Z,10.65
2018-10-18T21:54:08.309Z,10.68
2018-10-18T21:56:42.914Z,10.68
2018-10-18T21:59:17.413Z,10.72
2018-10-18T22:01:52.250Z,10.80
2018-10-18T22:04:25.463Z,10.85
2018-10-18T22:06:57.287Z,10.79
2018-10-18T22:09:29.598Z,10.72
2018-10-18T22:12:03.331Z,10.64
2018-10-18T22:14:39.842Z,10.82
2018-10-18T22:17:08.506Z,10.55
2018-10-18T22:19:42.222Z,10.21
2018-10-18T22:22:16.313Z,10.17
2018-10-18T22:24:50.558Z,9.89
2018-10-18T22:27:26.803Z,9.67
2018-10-18T22:30:00.951Z,9.72
2018-10-18T22:32:29.665Z,9.70
2018-10-18T22:35:00.703Z,9.49
2018-10-18T22:37:34.443Z,9.19
2018-10-18T22:40:03.280Z,9.45
2018-10-18T22:42:37.210Z,9.51
2018-10-18T22:45:07.767Z,9.86
2018-10-18T22:47:41.418Z,9.98
2018-10-18T22:50:15.088Z,9.89
2018-10-18T22:52:49.030Z,9.87
2018-10-18T22:55:23.345Z,9.56
2018-10-18T22:57:57.025Z,9.74
2018-10-18T23:00:25.813Z,9.99
2018-10-18T23:02:54.369Z,9.99
2018-10-18T23:05:29.574Z,10.03
2018-10-18T23:07:58.121Z,9.75
2018-10-18T23:10:26.685Z,9.25
2018-10-18T23:12:55.209Z,9.34
2018-10-18T23:15:23.790Z,9.17
2018-10-18T23:17:52.336Z,9.25
2018-10-18T23:20:20.941Z,9.03
2018-10-18T23:22:49.499Z,9.20
2018-10-18T23:25:18.072Z,9.17
2018-10-18T23:27:46.621Z,8.94
2018-10-18T23:30:15.185Z,9.29
2018-10-18T23:32:43.725Z,9.54
2018-10-18T23:35:12.323Z,9.48
2018-10-18T23:37:40.848Z,9.33
2018-10-18T23:40:09.456Z,9.30
2018-10-18T23:42:38.005Z,9.21
2018-10-18T23:45:07.716Z,9.25
2018-10-18T23:47:36.272Z,9.20
2018-10-18T23:50:05.058Z,9.43
2018-10-18T23:52:33.596Z,9.17
2018-10-18T23:55:05.188Z,9.32
2018-10-18T23:57:34.863Z,9.02
